Time;durP1;ratioP1;P1;durP2;ratioP2;P2;SDS_P1;SDS_P2;PMS_P1;PMS_P2;Temp;Humidity;BMP_temperature;BMP_pressure;BME280_temperature;BME280_humidity;BME280_pressure;Samples;Min_cycle;Max_cycle;Signal;HPM_P1;HPM_P2
2023/01/23 00:01:25;;;;;;;21.65;15.00;;;;;;;;;;4944871;28;20090;-81
2023/01/23 00:03:53;;;;;;;24.35;16.38;;;;;;;;;;4949171;28;20137;-81
2023/01/23 00:06:19;;;;;;;25.77;15.52;;;;;;;;;;4948131;28;20582;-81
2023/01/23 00:08:46;;;;;;;24.88;16.83;;;;;;;;;;4948014;28;20056;-81
2023/01/23 00:11:15;;;;;;;22.48;15.45;;;;;;;;;;4948590;28;20061;-81
2023/01/23 00:13:42;;;;;;;24.20;15.30;;;;;;;;;;4947907;28;20053;-81
2023/01/23 00:16:12;;;;;;;23.33;16.23;;;;;;;;;;4947052;28;20054;-81
2023/01/23 00:18:39;;;;;;;23.33;15.52;;;;;;;;;;4947425;28;20137;-81
2023/01/23 00:21:08;;;;;;;24.55;15.85;;;;;;;;;;4962244;28;20054;-81
2023/01/23 00:23:34;;;;;;;24.20;15.25;;;;;;;;;;4947047;28;20050;-81
2023/01/23 00:26:05;;;;;;;23.23;15.75;;;;;;;;;;4962531;28;20054;-80
2023/01/23 00:28:32;;;;;;;24.38;15.52;;;;;;;;;;4946564;28;20054;-81
2023/01/23 00:31:04;;;;;;;20.35;14.00;;;;;;;;;;4946533;28;20054;-81
2023/01/23 00:33:31;;;;;;;23.60;15.68;;;;;;;;;;4962485;28;20136;-81
2023/01/23 00:35:58;;;;;;;23.38;16.63;;;;;;;;;;4946837;28;20096;-80
2023/01/23 00:38:25;;;;;;;21.13;14.80;;;;;;;;;;4946847;28;20046;-79
2023/01/23 00:40:54;;;;;;;21.17;14.05;;;;;;;;;;4946941;28;20479;-79
2023/01/23 00:43:21;;;;;;;19.65;14.38;;;;;;;;;;4962957;28;20065;-78
2023/01/23 00:45:49;;;;;;;21.00;13.98;;;;;;;;;;4966699;28;20055;-78
2023/01/23 00:48:16;;;;;;;19.45;13.50;;;;;;;;;;4960641;28;20062;-78
2023/01/23 00:50:43;;;;;;;20.15;13.63;;;;;;;;;;4959568;28;20047;-79
2023/01/23 00:53:11;;;;;;;21.13;14.30;;;;;;;;;;4959689;28;20480;-79
2023/01/23 00:55:39;;;;;;;19.67;13.43;;;;;;;;;;4959973;28;20050;-79
2023/01/23 00:58:07;;;;;;;22.20;15.02;;;;;;;;;;4960821;28;20076;-80
2023/01/23 01:00:35;;;;;;;22.08;14.38;;;;;;;;;;4981164;28;20050;-81
2023/01/23 01:03:02;;;;;;;21.08;14.20;;;;;;;;;;4964800;28;20053;-81
2023/01/23 01:05:29;;;;;;;19.25;14.25;;;;;;;;;;4967821;28;20141;-81
2023/01/23 01:07:56;;;;;;;20.75;13.95;;;;;;;;;;4972481;28;20149;-80
2023/01/23 01:10:28;;;;;;;20.73;14.10;;;;;;;;;;4962985;28;20050;-79
2023/01/23 01:12:56;;;;;;;20.67;13.60;;;;;;;;;;4950735;28;20060;-80
2023/01/23 01:15:23;;;;;;;21.17;14.57;;;;;;;;;;4964446;28;20050;-81
2023/01/23 01:17:53;;;;;;;22.35;14.27;;;;;;;;;;4964965;28;20120;-81
2023/01/23 01:20:22;;;;;;;19.55;13.70;;;;;;;;;;4949887;28;20523;-81
2023/01/23 01:22:49;;;;;;;18.83;13.55;;;;;;;;;;4949947;28;20058;-80
2023/01/23 01:25:16;;;;;;;22.55;14.98;;;;;;;;;;4964226;28;20047;-80
2023/01/23 01:27:43;;;;;;;20.67;13.15;;;;;;;;;;4947749;28;20090;-80
2023/01/23 01:30:11;;;;;;;20.85;13.48;;;;;;;;;;4947981;28;20073;-80
2023/01/23 01:32:39;;;;;;;19.65;13.43;;;;;;;;;;4947830;28;20054;-80
2023/01/23 01:35:07;;;;;;;21.88;15.60;;;;;;;;;;4947307;28;20061;-80
2023/01/23 01:37:35;;;;;;;21.75;14.43;;;;;;;;;;4947235;28;20052;-79
2023/01/23 01:40:06;;;;;;;19.40;14.30;;;;;;;;;;4963220;28;20054;-80
2023/01/23 01:42:52;;;;;;;19.02;13.25;;;;;;;;;;4964093;28;20054;-80
2023/01/23 01:45:56;;;;;;;19.33;13.32;;;;;;;;;;4948327;28;20061;-80
2023/01/23 01:48:25;;;;;;;21.75;15.18;;;;;;;;;;4975204;28;20053;-80
2023/01/23 01:50:52;;;;;;;20.20;13.52;;;;;;;;;;4960303;28;20423;-80
2023/01/23 01:53:20;;;;;;;21.30;15.15;;;;;;;;;;4960574;28;20054;-80
2023/01/23 01:55:47;;;;;;;23.50;15.57;;;;;;;;;;4947510;28;20057;-80
2023/01/23 01:58:14;;;;;;;20.08;14.25;;;;;;;;;;4948051;28;20048;-80
2023/01/23 02:00:40;;;;;;;22.02;15.02;;;;;;;;;;4947040;28;20058;-79
2023/01/23 02:03:08;;;;;;;21.92;15.02;;;;;;;;;;4960360;28;20157;-78
2023/01/23 02:05:40;;;;;;;20.67;13.88;;;;;;;;;;4944541;28;20557;-78
2023/01/23 02:08:30;;;;;;;22.73;15.45;;;;;;;;;;4947145;28;20057;-79
2023/01/23 02:11:00;;;;;;;22.23;15.25;;;;;;;;;;4947375;28;20469;-79
2023/01/23 02:13:35;;;;;;;22.27;14.85;;;;;;;;;;4946524;28;20061;-79
2023/01/23 02:16:13;;;;;;;22.17;15.05;;;;;;;;;;4946629;28;20133;-79
2023/01/23 02:18:46;;;;;;;21.58;15.43;;;;;;;;;;4947106;28;20142;-79
2023/01/23 02:21:14;;;;;;;20.42;15.07;;;;;;;;;;4946971;28;20054;-79
2023/01/23 02:23:48;;;;;;;21.92;14.70;;;;;;;;;;4961537;28;20053;-78
2023/01/23 02:26:31;;;;;;;20.95;13.82;;;;;;;;;;4961699;28;20050;-79
2023/01/23 02:28:58;;;;;;;23.05;14.45;;;;;;;;;;4948543;28;20050;-80
2023/01/23 02:31:25;;;;;;;22.55;14.70;;;;;;;;;;4946683;28;20077;-79
2023/01/23 02:33:55;;;;;;;18.67;12.70;;;;;;;;;;4946662;28;20058;-81
2023/01/23 02:36:27;;;;;;;18.38;12.75;;;;;;;;;;4947121;28;20069;-81
2023/01/23 02:38:58;;;;;;;21.08;13.98;;;;;;;;;;4946429;28;20105;-81
2023/01/23 02:41:28;;;;;;;21.77;13.73;;;;;;;;;;4962612;28;20088;-80
2023/01/23 02:43:57;;;;;;;18.48;13.35;;;;;;;;;;4948103;28;20117;-83
2023/01/23 02:46:24;;;;;;;19.60;13.57;;;;;;;;;;4947374;28;20054;-82
2023/01/23 02:48:51;;;;;;;20.92;14.43;;;;;;;;;;4946262;28;20066;-82
2023/01/23 02:51:19;;;;;;;20.73;13.52;;;;;;;;;;4945721;28;20061;-80
2023/01/23 02:53:47;;;;;;;19.77;13.95;;;;;;;;;;4945734;28;20056;-81
2023/01/23 02:56:15;;;;;;;20.05;13.90;;;;;;;;;;4944681;28;20582;-80
2023/01/23 03:01:28;;;;;;;20.65;14.60;;;;;;;;;;4966037;28;20054;-79
2023/01/23 03:03:55;;;;;;;20.88;14.35;;;;;;;;;;4944348;28;20061;-78
2023/01/23 03:06:22;;;;;;;20.60;14.02;;;;;;;;;;4944434;28;20104;-79
2023/01/23 03:08:49;;;;;;;21.20;14.27;;;;;;;;;;4944936;28;20050;-82
2023/01/23 03:11:17;;;;;;;20.58;14.18;;;;;;;;;;4944808;28;20513;-80
2023/01/23 03:13:45;;;;;;;20.27;14.32;;;;;;;;;;4945008;28;20101;-80
2023/01/23 03:16:12;;;;;;;19.70;12.95;;;;;;;;;;4944844;28;20074;-81
2023/01/23 03:18:39;;;;;;;20.67;13.90;;;;;;;;;;4945888;28;20049;-81
2023/01/23 03:21:19;;;;;;;20.27;13.73;;;;;;;;;;4961506;28;20058;-81
2023/01/23 03:23:47;;;;;;;21.33;13.68;;;;;;;;;;4949406;28;20503;-82
2023/01/23 03:26:14;;;;;;;19.92;13.48;;;;;;;;;;4947398;28;20082;-81
2023/01/23 03:31:26;;;;;;;20.20;13.57;;;;;;;;;;4967346;28;20570;-81
2023/01/23 03:33:53;;;;;;;22.15;14.88;;;;;;;;;;4962729;28;20137;-81
2023/01/23 03:36:19;;;;;;;21.05;14.60;;;;;;;;;;4946679;28;20058;-81
2023/01/23 03:41:32;;;;;;;22.10;14.75;;;;;;;;;;4971466;28;20054;-81
2023/01/23 03:43:59;;;;;;;20.48;13.35;;;;;;;;;;4950553;28;20128;-80
2023/01/23 03:46:26;;;;;;;21.35;14.35;;;;;;;;;;4965304;28;20083;-81
2023/01/23 03:48:53;;;;;;;21.40;14.38;;;;;;;;;;4949312;28;20142;-80
2023/01/23 03:51:19;;;;;;;21.50;13.85;;;;;;;;;;4947738;28;20054;-80
2023/01/23 03:53:46;;;;;;;23.95;15.65;;;;;;;;;;4963306;28;20561;-81
2023/01/23 03:56:13;;;;;;;20.23;13.93;;;;;;;;;;4948970;28;20153;-80
2023/01/23 03:58:40;;;;;;;23.25;15.52;;;;;;;;;;4965465;28;20050;-80
2023/01/23 04:01:08;;;;;;;19.92;13.50;;;;;;;;;;4965528;28;20081;-80
2023/01/23 04:03:35;;;;;;;22.73;13.93;;;;;;;;;;4948947;28;20050;-81
2023/01/23 04:06:02;;;;;;;21.33;14.27;;;;;;;;;;4950797;28;20125;-82
2023/01/23 04:08:29;;;;;;;20.80;14.43;;;;;;;;;;4949496;28;20057;-80
2023/01/23 04:11:03;;;;;;;22.48;14.35;;;;;;;;;;4964687;28;20058;-81
2023/01/23 04:13:30;;;;;;;21.02;14.75;;;;;;;;;;4948577;28;20133;-81
2023/01/23 04:15:58;;;;;;;20.85;14.73;;;;;;;;;;4963900;28;20061;-79
2023/01/23 04:18:25;;;;;;;20.02;13.70;;;;;;;;;;4946449;28;20144;-79
2023/01/23 04:20:52;;;;;;;22.60;14.32;;;;;;;;;;4963466;28;20426;-79
2023/01/23 04:23:19;;;;;;;24.13;15.55;;;;;;;;;;4947216;28;20068;-79
2023/01/23 04:25:46;;;;;;;21.25;14.77;;;;;;;;;;4947415;28;20426;-79
2023/01/23 04:28:16;;;;;;;22.70;15.60;;;;;;;;;;4947756;28;20046;-80
2023/01/23 04:30:43;;;;;;;21.17;14.88;;;;;;;;;;4963255;28;20050;-80
2023/01/23 04:33:10;;;;;;;22.17;15.27;;;;;;;;;;4951722;28;20469;-81
2023/01/23 04:35:37;;;;;;;21.75;14.65;;;;;;;;;;4949892;28;20525;-81
2023/01/23 04:38:03;;;;;;;22.35;15.15;;;;;;;;;;4949279;28;20108;-80
2023/01/23 04:40:30;;;;;;;22.77;15.02;;;;;;;;;;4948739;28;20081;-81
2023/01/23 04:42:57;;;;;;;22.33;14.52;;;;;;;;;;4946397;28;20081;-80
2023/01/23 04:45:24;;;;;;;22.67;14.40;;;;;;;;;;4977595;28;20404;-81
2023/01/23 04:47:51;;;;;;;22.88;14.27;;;;;;;;;;4948230;28;20058;-80
2023/01/23 04:50:17;;;;;;;23.75;15.63;;;;;;;;;;4993586;28;20134;-80
2023/01/23 04:52:45;;;;;;;25.05;17.27;;;;;;;;;;4996875;28;20058;-80
2023/01/23 04:55:11;;;;;;;23.85;16.35;;;;;;;;;;4980666;28;20133;-81
2023/01/23 04:57:38;;;;;;;27.80;18.23;;;;;;;;;;4980483;28;20136;-80
2023/01/23 05:00:06;;;;;;;24.38;16.23;;;;;;;;;;4980328;28;20050;-80
2023/01/23 05:02:33;;;;;;;20.70;14.60;;;;;;;;;;4980971;28;20081;-80
2023/01/23 05:04:59;;;;;;;21.48;14.38;;;;;;;;;;4997004;28;20558;-80
2023/01/23 05:07:27;;;;;;;24.27;14.85;;;;;;;;;;4980687;28;20495;-80
2023/01/23 05:09:54;;;;;;;23.15;15.18;;;;;;;;;;4980152;28;20045;-80
2023/01/23 05:12:21;;;;;;;20.90;14.32;;;;;;;;;;4979846;28;20072;-80
2023/01/23 05:14:47;;;;;;;21.40;14.35;;;;;;;;;;4980198;28;20054;-80
2023/01/23 05:17:14;;;;;;;23.77;14.57;;;;;;;;;;4963552;28;20052;-79
2023/01/23 05:19:41;;;;;;;22.00;14.95;;;;;;;;;;4944356;28;20046;-79
2023/01/23 05:22:08;;;;;;;24.63;14.85;;;;;;;;;;4943943;28;20076;-80
2023/01/23 05:24:34;;;;;;;24.05;15.73;;;;;;;;;;4943671;28;20055;-80
2023/01/23 05:27:01;;;;;;;25.52;16.67;;;;;;;;;;4958826;28;20129;-81
2023/01/23 05:29:28;;;;;;;22.30;14.35;;;;;;;;;;4943359;28;20054;-80
2023/01/23 05:31:55;;;;;;;21.58;14.40;;;;;;;;;;4959721;28;20149;-80
2023/01/23 05:34:22;;;;;;;21.65;13.38;;;;;;;;;;4943307;28;20573;-81
2023/01/23 05:36:49;;;;;;;19.20;12.63;;;;;;;;;;4943602;28;20046;-80
2023/01/23 05:39:15;;;;;;;19.42;13.40;;;;;;;;;;4943302;28;20495;-83
2023/01/23 05:41:42;;;;;;;19.75;13.05;;;;;;;;;;4942223;28;20446;-84
2023/01/23 05:44:09;;;;;;;21.63;14.23;;;;;;;;;;4942216;28;20066;-86
2023/01/23 05:46:36;;;;;;;20.65;13.82;;;;;;;;;;4958325;28;20054;-87
2023/01/23 05:49:03;;;;;;;21.05;13.02;;;;;;;;;;4955623;28;20118;-86
2023/01/23 05:51:33;;;;;;;20.92;13.63;;;;;;;;;;4961072;28;20146;-86
2023/01/23 05:54:00;;;;;;;20.75;13.05;;;;;;;;;;4981236;28;20069;-84
2023/01/23 05:56:27;;;;;;;19.98;13.00;;;;;;;;;;4994854;28;20121;-84
2023/01/23 05:58:54;;;;;;;22.10;13.65;;;;;;;;;;4963613;28;20069;-83
2023/01/23 06:01:21;;;;;;;24.58;15.00;;;;;;;;;;4978796;28;20057;-83
2023/01/23 06:03:47;;;;;;;24.08;15.48;;;;;;;;;;4944985;28;20062;-83
2023/01/23 06:06:14;;;;;;;21.45;14.30;;;;;;;;;;4941846;28;20058;-83
2023/01/23 06:08:41;;;;;;;22.70;14.52;;;;;;;;;;4942552;28;20061;-83
2023/01/23 06:11:08;;;;;;;25.30;14.93;;;;;;;;;;4944482;28;20427;-83
2023/01/23 06:13:35;;;;;;;21.08;13.45;;;;;;;;;;4959889;28;20054;-83
2023/01/23 06:16:02;;;;;;;22.58;14.05;;;;;;;;;;4962351;28;20054;-83
2023/01/23 06:18:29;;;;;;;21.90;13.80;;;;;;;;;;4962163;28;20073;-83
2023/01/23 06:20:57;;;;;;;23.65;15.00;;;;;;;;;;4959967;28;20053;-83
2023/01/23 06:23:24;;;;;;;21.42;15.20;;;;;;;;;;4960074;28;20058;-82
2023/01/23 06:25:51;;;;;;;21.48;14.02;;;;;;;;;;4959252;28;20054;-82
2023/01/23 06:28:18;;;;;;;23.67;15.02;;;;;;;;;;4958400;28;20146;-83
2023/01/23 06:30:44;;;;;;;21.25;14.38;;;;;;;;;;4959426;28;20050;-82
2023/01/23 06:33:11;;;;;;;20.48;13.68;;;;;;;;;;4959742;28;20100;-83
2023/01/23 06:35:38;;;;;;;20.63;13.07;;;;;;;;;;4962682;28;20073;-83
2023/01/23 06:38:05;;;;;;;20.73;13.68;;;;;;;;;;4958193;28;20050;-83
2023/01/23 06:40:32;;;;;;;19.08;12.32;;;;;;;;;;4959582;28;20050;-83
2023/01/23 06:42:59;;;;;;;19.48;12.95;;;;;;;;;;4975412;28;20054;-83
2023/01/23 06:45:26;;;;;;;21.67;13.65;;;;;;;;;;4957676;28;20056;-82
2023/01/23 06:47:53;;;;;;;21.70;13.32;;;;;;;;;;4970431;28;20085;-83
2023/01/23 06:50:20;;;;;;;19.85;12.57;;;;;;;;;;4969409;28;20462;-83
2023/01/23 06:52:47;;;;;;;22.45;13.50;;;;;;;;;;4952901;28;20057;-82
2023/01/23 06:55:14;;;;;;;22.15;14.50;;;;;;;;;;4953414;28;20050;-82
2023/01/23 06:57:42;;;;;;;24.80;14.18;;;;;;;;;;4982421;28;20050;-83
2023/01/23 07:00:09;;;;;;;22.02;13.88;;;;;;;;;;4956595;28;20057;-83
2023/01/23 07:02:38;;;;;;;23.63;14.38;;;;;;;;;;4953689;28;20117;-83
2023/01/23 07:05:05;;;;;;;22.75;13.68;;;;;;;;;;4954704;28;20085;-81
2023/01/23 07:07:31;;;;;;;21.00;13.35;;;;;;;;;;4953781;28;20054;-85
2023/01/23 07:09:58;;;;;;;22.17;13.02;;;;;;;;;;4957178;28;20077;-84
2023/01/23 07:12:25;;;;;;;25.17;15.30;;;;;;;;;;4967684;28;20084;-87
2023/01/23 07:14:52;;;;;;;24.80;14.25;;;;;;;;;;4953202;28;20074;-87
2023/01/23 07:17:19;;;;;;;24.80;14.98;;;;;;;;;;4957279;28;20109;-86
2023/01/23 07:19:46;;;;;;;26.42;15.48;;;;;;;;;;4958396;28;20062;-86
2023/01/23 07:22:16;;;;;;;24.20;15.23;;;;;;;;;;4962946;28;20050;-87
2023/01/23 07:24:43;;;;;;;26.00;15.73;;;;;;;;;;4970677;28;20054;-89
2023/01/23 07:27:10;;;;;;;26.90;15.15;;;;;;;;;;4961635;28;20046;-86
2023/01/23 07:29:37;;;;;;;29.13;16.55;;;;;;;;;;4954695;28;20070;-88
2023/01/23 07:32:04;;;;;;;24.27;14.52;;;;;;;;;;4952642;28;20062;-86
2023/01/23 07:34:31;;;;;;;26.83;16.27;;;;;;;;;;4950153;28;20093;-86
2023/01/23 07:36:58;;;;;;;29.05;17.02;;;;;;;;;;4952080;28;20068;-87
2023/01/23 07:39:25;;;;;;;27.55;16.98;;;;;;;;;;4951535;28;20145;-86
2023/01/23 07:41:52;;;;;;;24.13;15.27;;;;;;;;;;4951503;28;20086;-87
2023/01/23 07:44:29;;;;;;;26.60;15.38;;;;;;;;;;4950025;28;20046;-82
2023/01/23 07:46:56;;;;;;;25.23;13.98;;;;;;;;;;4958650;28;20074;-83
2023/01/23 07:49:22;;;;;;;23.83;14.48;;;;;;;;;;4942142;28;20050;-83
2023/01/23 07:51:50;;;;;;;25.83;15.48;;;;;;;;;;4942273;28;20050;-82
2023/01/23 07:54:17;;;;;;;25.98;15.05;;;;;;;;;;4942659;28;20046;-82
2023/01/23 07:56:43;;;;;;;27.65;15.85;;;;;;;;;;4941939;28;20047;-83
2023/01/23 07:59:12;;;;;;;26.42;16.27;;;;;;;;;;4955141;28;20135;-83
2023/01/23 08:01:38;;;;;;;25.75;15.90;;;;;;;;;;4974103;28;20080;-83
2023/01/23 08:04:05;;;;;;;26.13;15.15;;;;;;;;;;4942531;28;20065;-82
2023/01/23 08:06:33;;;;;;;26.48;15.27;;;;;;;;;;4974219;28;20116;-81
2023/01/23 08:09:00;;;;;;;26.05;15.27;;;;;;;;;;4993615;28;20078;-82
2023/01/23 08:11:27;;;;;;;24.63;14.70;;;;;;;;;;4946245;28;20118;-82
2023/01/23 08:13:54;;;;;;;25.98;15.18;;;;;;;;;;4954263;28;20054;-83
2023/01/23 08:16:21;;;;;;;24.15;14.05;;;;;;;;;;4947677;28;20066;-83
2023/01/23 08:18:48;;;;;;;26.17;14.95;;;;;;;;;;4959728;28;20059;-85
2023/01/23 08:21:16;;;;;;;26.23;14.48;;;;;;;;;;4942349;28;20121;-86
2023/01/23 08:23:43;;;;;;;25.92;14.65;;;;;;;;;;4974676;28;20677;-86
2023/01/23 08:26:13;;;;;;;24.80;14.50;;;;;;;;;;4971182;28;20137;-86
2023/01/23 08:28:41;;;;;;;23.13;14.27;;;;;;;;;;4958923;28;20373;-85
2023/01/23 08:31:09;;;;;;;25.92;14.75;;;;;;;;;;4957430;28;20046;-82
2023/01/23 08:33:37;;;;;;;20.75;12.95;;;;;;;;;;4968966;28;20046;-83
2023/01/23 08:36:05;;;;;;;22.50;13.98;;;;;;;;;;4971954;28;20494;-83
2023/01/23 08:38:32;;;;;;;20.40;13.02;;;;;;;;;;4968123;28;20070;-79
2023/01/23 08:41:00;;;;;;;26.23;14.98;;;;;;;;;;4968039;28;20104;-83
2023/01/23 08:43:28;;;;;;;21.20;12.93;;;;;;;;;;4967741;28;20075;-84
2023/01/23 08:45:56;;;;;;;22.33;13.45;;;;;;;;;;4960085;28;20137;-83
2023/01/23 08:48:24;;;;;;;21.67;13.35;;;;;;;;;;4957901;28;20075;-84
2023/01/23 08:50:59;;;;;;;23.52;13.32;;;;;;;;;;4991868;28;20118;-83
2023/01/23 08:53:36;;;;;;;20.33;13.15;;;;;;;;;;4991424;28;20042;-83
2023/01/23 08:56:22;;;;;;;20.88;12.73;;;;;;;;;;4980249;28;20495;-83
2023/01/23 08:58:50;;;;;;;17.40;11.88;;;;;;;;;;4999139;28;20050;-84
2023/01/23 09:01:20;;;;;;;17.60;10.50;;;;;;;;;;4957705;28;20058;-84
2023/01/23 09:03:47;;;;;;;18.85;11.38;;;;;;;;;;4996173;28;20047;-81
2023/01/23 09:06:16;;;;;;;19.40;12.02;;;;;;;;;;4959051;28;20051;-83
2023/01/23 09:08:44;;;;;;;17.50;10.95;;;;;;;;;;4977917;28;20053;-82
2023/01/23 09:11:11;;;;;;;15.10;9.70;;;;;;;;;;4974467;28;20056;-83
2023/01/23 09:13:39;;;;;;;14.57;9.60;;;;;;;;;;4980165;28;20073;-84
2023/01/23 09:16:09;;;;;;;15.60;9.82;;;;;;;;;;4961567;28;20145;-83
2023/01/23 09:18:36;;;;;;;15.98;10.13;;;;;;;;;;4957606;28;20061;-84
2023/01/23 09:21:09;;;;;;;17.23;10.75;;;;;;;;;;4972552;28;20057;-84
2023/01/23 09:23:36;;;;;;;15.75;10.40;;;;;;;;;;4981983;28;20490;-83
2023/01/23 09:26:08;;;;;;;12.48;8.90;;;;;;;;;;4973095;28;20121;-83
2023/01/23 09:28:38;;;;;;;14.30;8.93;;;;;;;;;;4951803;28;20063;-84
2023/01/23 09:31:09;;;;;;;14.23;9.35;;;;;;;;;;4957225;28;20066;-85
2023/01/23 09:33:36;;;;;;;14.70;9.93;;;;;;;;;;4988967;28;20074;-84
2023/01/23 09:36:04;;;;;;;15.23;9.93;;;;;;;;;;5000850;28;20110;-84
2023/01/23 09:38:32;;;;;;;15.65;10.60;;;;;;;;;;4973904;28;20137;-83
2023/01/23 09:41:06;;;;;;;14.48;9.50;;;;;;;;;;4969467;28;20042;-83
2023/01/23 09:43:38;;;;;;;15.30;10.30;;;;;;;;;;4987738;28;21098;-84
2023/01/23 09:46:08;;;;;;;18.55;10.43;;;;;;;;;;4978212;28;20081;-84
2023/01/23 09:48:43;;;;;;;19.00;10.32;;;;;;;;;;5005885;28;20041;-84
2023/01/23 09:51:55;;;;;;;17.23;11.13;;;;;;;;;;4982238;28;20043;-85
2023/01/23 09:54:30;;;;;;;16.85;9.98;;;;;;;;;;5031090;28;20058;-86
2023/01/23 09:56:59;;;;;;;17.52;10.80;;;;;;;;;;5006991;28;20061;-88
2023/01/23 09:59:36;;;;;;;17.52;10.63;;;;;;;;;;4969372;28;20074;-87
2023/01/23 10:02:23;;;;;;;17.70;10.35;;;;;;;;;;4978020;28;20042;-86
2023/01/23 10:04:53;;;;;;;16.10;10.27;;;;;;;;;;5012933;28;20089;-86
2023/01/23 10:07:44;;;;;;;14.30;9.75;;;;;;;;;;4986506;28;20046;-85
2023/01/23 10:10:43;;;;;;;13.45;9.02;;;;;;;;;;5015154;28;20057;-88
2023/01/23 10:13:16;;;;;;;16.27;10.02;;;;;;;;;;5013944;28;20101;-85
2023/01/23 10:16:26;;;;;;;12.10;8.95;;;;;;;;;;4980142;28;20117;-84
2023/01/23 10:19:12;;;;;;;14.73;9.15;;;;;;;;;;4985520;28;20092;-87
2023/01/23 10:22:15;;;;;;;14.60;9.40;;;;;;;;;;4987807;28;20078;-87
2023/01/23 10:24:51;;;;;;;16.67;10.10;;;;;;;;;;4983078;28;20056;-87
2023/01/23 10:27:37;;;;;;;15.15;9.30;;;;;;;;;;4994435;28;20030;-87
2023/01/23 10:30:15;;;;;;;13.82;9.25;;;;;;;;;;4997218;28;20058;-86
2023/01/23 10:33:07;;;;;;;14.95;9.05;;;;;;;;;;4996807;28;20080;-86
2023/01/23 10:35:35;;;;;;;14.32;9.90;;;;;;;;;;5014204;28;20038;-87
2023/01/23 10:38:23;;;;;;;14.20;8.90;;;;;;;;;;5011573;28;20046;-87
2023/01/23 10:43:37;;;;;;;15.88;9.80;;;;;;;;;;4986211;28;20085;-85
2023/01/23 10:46:09;;;;;;;13.52;9.15;;;;;;;;;;4962417;28;20129;-85
2023/01/23 10:48:46;;;;;;;15.55;9.95;;;;;;;;;;5008341;28;20065;-84
2023/01/23 10:51:29;;;;;;;17.27;10.23;;;;;;;;;;4994624;28;20050;-87
2023/01/23 10:54:03;;;;;;;13.43;8.32;;;;;;;;;;4954200;28;20101;-84
2023/01/23 10:56:34;;;;;;;15.88;10.15;;;;;;;;;;4984590;28;20049;-86
2023/01/23 10:59:01;;;;;;;16.67;10.25;;;;;;;;;;4972291;28;20077;-87
2023/01/23 11:01:31;;;;;;;15.32;9.95;;;;;;;;;;4957655;28;20078;-84
2023/01/23 11:04:19;;;;;;;18.15;11.18;;;;;;;;;;4972149;28;20050;-84
2023/01/23 11:07:13;;;;;;;15.55;10.10;;;;;;;;;;4960658;28;20573;-83
2023/01/23 11:09:57;;;;;;;14.63;9.95;;;;;;;;;;4947781;28;20073;-85
2023/01/23 11:12:28;;;;;;;15.20;9.85;;;;;;;;;;4947649;28;20043;-84
2023/01/23 11:15:23;;;;;;;17.83;10.75;;;;;;;;;;4969000;28;20062;-85
2023/01/23 11:17:51;;;;;;;16.67;10.93;;;;;;;;;;4983436;28;20133;-86
2023/01/23 11:20:34;;;;;;;19.50;11.02;;;;;;;;;;4950811;28;20088;-87
2023/01/23 11:23:07;;;;;;;15.55;10.50;;;;;;;;;;4967463;28;20092;-86
2023/01/23 11:25:40;;;;;;;15.65;10.00;;;;;;;;;;4981634;28;20052;-86
2023/01/23 11:28:19;;;;;;;14.95;9.35;;;;;;;;;;4999028;28;20461;-86
2023/01/23 11:31:11;;;;;;;16.90;9.50;;;;;;;;;;4983053;28;20526;-85
2023/01/23 11:33:50;;;;;;;14.05;9.75;;;;;;;;;;4979955;28;20062;-84
2023/01/23 11:36:17;;;;;;;16.38;9.65;;;;;;;;;;4969154;28;20100;-85
2023/01/23 11:39:05;;;;;;;15.90;10.43;;;;;;;;;;4983221;28;20046;-84
2023/01/23 11:41:33;;;;;;;15.38;9.68;;;;;;;;;;4965712;28;20133;-84
2023/01/23 11:44:04;;;;;;;17.33;10.85;;;;;;;;;;4989192;28;20058;-83
2023/01/23 11:47:17;;;;;;;18.35;10.20;;;;;;;;;;4955019;28;20077;-83
2023/01/23 11:49:47;;;;;;;15.95;9.90;;;;;;;;;;4917104;29;20150;-83
2023/01/23 11:52:25;;;;;;;16.38;10.15;;;;;;;;;;4979123;28;20076;-84
2023/01/23 11:55:24;;;;;;;15.93;10.07;;;;;;;;;;4979529;28;20054;-84
2023/01/23 11:58:03;;;;;;;16.42;10.60;;;;;;;;;;4998555;28;20123;-84
2023/01/23 12:00:37;;;;;;;17.30;9.88;;;;;;;;;;4988303;28;20054;-85
2023/01/23 12:03:23;;;;;;;16.13;10.35;;;;;;;;;;4988795;28;20054;-83
2023/01/23 12:06:10;;;;;;;15.07;10.18;;;;;;;;;;4989415;28;20062;-82
2023/01/23 12:09:08;;;;;;;17.27;10.98;;;;;;;;;;4972878;28;20111;-82
2023/01/23 12:11:57;;;;;;;16.60;10.52;;;;;;;;;;4969457;28;20056;-83
2023/01/23 12:14:23;;;;;;;17.10;10.43;;;;;;;;;;4988537;28;20043;-82
2023/01/23 12:17:21;;;;;;;15.40;9.88;;;;;;;;;;4985310;28;20081;-83
2023/01/23 12:20:22;;;;;;;15.18;9.95;;;;;;;;;;5005600;28;20509;-83
2023/01/23 12:22:54;;;;;;;16.48;10.38;;;;;;;;;;4986016;28;20047;-83
2023/01/23 12:25:27;;;;;;;19.42;11.13;;;;;;;;;;4985479;28;20057;-83
2023/01/23 12:28:00;;;;;;;17.42;10.35;;;;;;;;;;4985950;28;20077;-83
2023/01/23 12:30:37;;;;;;;16.45;10.80;;;;;;;;;;4971009;28;20051;-82
2023/01/23 12:33:10;;;;;;;15.05;10.13;;;;;;;;;;4987313;28;20141;-83
2023/01/23 12:35:46;;;;;;;16.08;9.73;;;;;;;;;;4968707;28;20107;-83
2023/01/23 12:38:51;;;;;;;14.95;9.38;;;;;;;;;;4993290;28;20142;-83
2023/01/23 12:41:37;;;;;;;15.02;9.45;;;;;;;;;;4948638;28;20054;-78
2023/01/23 12:44:23;;;;;;;14.50;9.32;;;;;;;;;;4979936;28;20510;-79
2023/01/23 12:47:09;;;;;;;17.23;9.77;;;;;;;;;;4981573;28;20064;-76
2023/01/23 12:49:50;;;;;;;15.48;9.40;;;;;;;;;;4982947;28;20046;-76
2023/01/23 12:52:37;;;;;;;13.35;8.77;;;;;;;;;;4954345;28;20042;-78
2023/01/23 12:55:56;;;;;;;15.88;9.27;;;;;;;;;;4980509;28;20057;-78
2023/01/23 12:58:26;;;;;;;13.90;9.40;;;;;;;;;;4979630;28;20053;-78
2023/01/23 13:01:20;;;;;;;13.55;8.93;;;;;;;;;;4953803;28;20558;-78
2023/01/23 13:04:18;;;;;;;14.70;8.73;;;;;;;;;;4974371;28;20113;-83
2023/01/23 13:06:56;;;;;;;12.20;8.20;;;;;;;;;;4993690;28;20151;-83
2023/01/23 13:09:31;;;;;;;14.32;8.55;;;;;;;;;;4988459;28;20046;-84
2023/01/23 13:12:19;;;;;;;13.43;8.68;;;;;;;;;;4977851;28;20050;-84
2023/01/23 13:14:47;;;;;;;14.10;9.70;;;;;;;;;;4995216;28;20058;-84
2023/01/23 13:17:37;;;;;;;12.90;8.02;;;;;;;;;;4980780;28;20054;-83
2023/01/23 13:23:32;;;;;;;13.63;9.45;;;;;;;;;;4989734;28;20089;-84
2023/01/23 13:26:15;;;;;;;15.35;8.70;;;;;;;;;;4970278;28;20637;-84
2023/01/23 13:28:43;;;;;;;12.98;8.30;;;;;;;;;;4984232;28;20075;-83
2023/01/23 13:31:40;;;;;;;12.45;9.27;;;;;;;;;;4993999;28;20050;-83
2023/01/23 13:34:17;;;;;;;17.00;9.93;;;;;;;;;;4972115;28;20128;-82
2023/01/23 13:36:54;;;;;;;14.07;8.40;;;;;;;;;;4986477;28;20449;-84
2023/01/23 13:39:28;;;;;;;12.60;8.32;;;;;;;;;;4957608;28;20108;-83
2023/01/23 13:42:13;;;;;;;12.75;8.38;;;;;;;;;;4987301;28;20051;-84
2023/01/23 13:45:19;;;;;;;15.43;9.57;;;;;;;;;;4989600;28;20046;-83
2023/01/23 13:51:19;;;;;;;14.63;8.20;;;;;;;;;;4916338;29;20108;-83
2023/01/23 13:57:00;;;;;;;15.27;9.10;;;;;;;;;;4845125;29;20053;-83
2023/01/23 13:59:46;;;;;;;13.75;8.23;;;;;;;;;;4824629;29;20065;-82
2023/01/23 14:05:38;;;;;;;12.15;7.85;;;;;;;;;;4732514;30;20595;-81
2023/01/23 14:08:21;;;;;;;15.57;8.35;;;;;;;;;;4655002;30;20059;-80
2023/01/23 14:10:48;;;;;;;14.52;9.13;;;;;;;;;;4664338;30;20054;-82
2023/01/23 14:13:29;;;;;;;13.32;8.50;;;;;;;;;;4627149;30;20058;-81
2023/01/23 14:16:12;;;;;;;14.38;9.02;;;;;;;;;;4625711;30;20077;-81
2023/01/23 14:19:03;;;;;;;15.25;10.35;;;;;;;;;;4621003;30;20126;-81
2023/01/23 14:21:51;;;;;;;13.95;9.45;;;;;;;;;;4644095;30;20059;-82
2023/01/23 14:24:30;;;;;;;14.60;8.95;;;;;;;;;;4680088;30;20602;-81
2023/01/23 14:26:59;;;;;;;13.02;8.27;;;;;;;;;;4756094;30;20116;-81
2023/01/23 14:29:33;;;;;;;13.60;8.38;;;;;;;;;;4767151;30;20062;-81
2023/01/23 14:32:00;;;;;;;15.88;9.43;;;;;;;;;;4855703;29;20102;-81
2023/01/23 14:34:27;;;;;;;14.70;8.90;;;;;;;;;;4922377;29;20067;-82
2023/01/23 14:37:05;;;;;;;13.93;8.55;;;;;;;;;;4947823;28;20072;-81
2023/01/23 14:39:33;;;;;;;15.38;8.52;;;;;;;;;;4921300;29;20067;-81
2023/01/23 14:42:01;;;;;;;15.75;9.40;;;;;;;;;;4903645;29;20072;-81
2023/01/23 14:44:56;;;;;;;13.15;8.55;;;;;;;;;;4920153;29;20054;-81
2023/01/23 14:47:33;;;;;;;14.05;8.65;;;;;;;;;;4986815;28;20128;-81
2023/01/23 14:50:01;;;;;;;16.08;9.77;;;;;;;;;;4984310;28;20061;-82
2023/01/23 14:52:29;;;;;;;13.98;9.00;;;;;;;;;;4956012;28;20058;-81
2023/01/23 14:54:57;;;;;;;14.30;9.23;;;;;;;;;;4954305;28;20062;-81
2023/01/23 14:57:32;;;;;;;15.15;9.48;;;;;;;;;;4957137;28;20061;-81
2023/01/23 14:59:59;;;;;;;13.02;9.02;;;;;;;;;;4953635;28;20140;-81
2023/01/23 15:02:32;;;;;;;15.05;9.80;;;;;;;;;;4947947;28;20065;-81
2023/01/23 15:05:15;;;;;;;;;;;;;;;;;;4956198;28;20121;-81
2023/01/23 15:08:19;;;;;;;16.92;9.80;;;;;;;;;;4970487;28;19933;-81
2023/01/23 15:10:47;;;;;;;17.92;11.02;;;;;;;;;;4977239;28;20064;-81
2023/01/23 15:13:25;;;;;;;14.07;9.63;;;;;;;;;;4968951;28;20077;-82
2023/01/23 15:15:55;;;;;;;15.32;9.43;;;;;;;;;;4975146;28;20084;-82